Sonny — WDG5366 — position and weather

sailwx.info

Track history (hours):
 
Tides and Currents Weather Stations Pressure Air Temp Water Temp Dewpoint Dewpoint Depression Visibility Wind Speed Wind Dir Waves Ship Positions

Sonny

Owner: Biscayne Towing & Salvage, Inc., Miami, FL. More information available from US FCC via Universal Licensing System and Coast Guard Vessel Documentation Center.

Last reported at 2017-Sep-21 06:37 UTC. Time now 2017-Sep-24 06:43 UTC.
Position N 25°24' W 080°11'.

; draft 2.5 m.

Type: Towing. MMSI: 366931000.

Date/timePositionNaut miles runAvg speedWind from/ knotsBaromVisibWave heightAir tempDewpointWater temp
2017-Sep-21 06:37N 25°24' W 080°11'3 8.2
2017-Sep-21 06:16N 25°27' W 080°10'2 8.4
2017-Sep-21 06:00N 25°29' W 080°09'4 8.4
2017-Sep-21 05:30N 25°33' W 080°08'4 8.2
2017-Sep-21 05:00N 25°37' W 080°07'4 8.1
2017-Sep-21 04:30N 25°42' W 080°07'4 8.1
2017-Sep-21 04:01N 25°46' W 080°07'4 7.7
2017-Sep-21 03:31N 25°46' W 080°12'1 0.0
2017-Sep-19 17:04N 25°47' W 080°12'0 0.0
2017-Sep-19 17:00N 25°47' W 080°12'1 1.4
2017-Sep-19 16:30N 25°46' W 080°12'2 3.3
2017-Sep-19 16:00N 25°46' W 080°10'0 0.0
2017-Sep-19 15:30N 25°46' W 080°10'0 0.0
2017-Sep-19 15:00N 25°46' W 080°10'0 0.0
2017-Sep-19 14:30N 25°46' W 080°10'1 2.0
2017-Sep-19 14:00N 25°46' W 080°09'2 3.9
2017-Sep-19 13:30N 25°46' W 080°11'1 2.8
2017-Sep-19 13:00N 25°45' W 080°11'1 1.4
2017-Sep-19 12:30N 25°45' W 080°10'0 0.1
2017-Sep-19 12:00N 25°45' W 080°10'2 3.2
2017-Sep-19 11:30N 25°46' W 080°11'1 1.5
2017-Sep-19 11:00N 25°47' W 080°12'  
2017-Sep-16 22:10N 25°47' W 080°12'0 0.0
2017-Sep-16 22:00N 25°47' W 080°12'1 1.6
2017-Sep-16 21:30N 25°46' W 080°11'1 1.8
2017-Sep-16 21:00N 25°47' W 080°11'0 0.2
2017-Sep-16 20:30N 25°47' W 080°11'0 0.0
2017-Sep-16 20:00N 25°47' W 080°11'0 0.0
2017-Sep-16 19:31N 25°47' W 080°11'0 0.0
2017-Sep-16 19:00N 25°47' W 080°11'1 2.0
2017-Sep-16 18:30N 25°47' W 080°12'0 0.1
2017-Sep-16 18:00N 25°47' W 080°12'  
Track history (hours):
 
Tides and Currents Weather Stations Pressure Air Temp Water Temp Dewpoint Dewpoint Depression Visibility Wind Speed Wind Dir Waves Ship Positions

Sonny

Owner: Biscayne Towing & Salvage, Inc., Miami, FL. More information available from US FCC via Universal Licensing System and Coast Guard Vessel Documentation Center.

Last reported at 2017-Sep-21 06:37 UTC. Time now 2017-Sep-24 06:43 UTC.
Position N 25°24' W 080°11'.

; draft 2.5 m.

Type: Towing. MMSI: 366931000.

Date/timePositionNaut miles runAvg speedWind from/ knotsBaromVisibWave heightAir tempDewpointWater temp
2017-Sep-21 06:37N 25°24' W 080°11'3 8.2
2017-Sep-21 06:16N 25°27' W 080°10'2 8.4
2017-Sep-21 06:00N 25°29' W 080°09'4 8.4
2017-Sep-21 05:30N 25°33' W 080°08'4 8.2
2017-Sep-21 05:00N 25°37' W 080°07'4 8.1
2017-Sep-21 04:30N 25°42' W 080°07'4 8.1
2017-Sep-21 04:01N 25°46' W 080°07'4 7.7
2017-Sep-21 03:31N 25°46' W 080°12'1 0.0
2017-Sep-19 17:04N 25°47' W 080°12'0 0.0
2017-Sep-19 17:00N 25°47' W 080°12'1 1.4
2017-Sep-19 16:30N 25°46' W 080°12'2 3.3
2017-Sep-19 16:00N 25°46' W 080°10'0 0.0
2017-Sep-19 15:30N 25°46' W 080°10'0 0.0
2017-Sep-19 15:00N 25°46' W 080°10'0 0.0
2017-Sep-19 14:30N 25°46' W 080°10'1 2.0
2017-Sep-19 14:00N 25°46' W 080°09'2 3.9
2017-Sep-19 13:30N 25°46' W 080°11'1 2.8
2017-Sep-19 13:00N 25°45' W 080°11'1 1.4
2017-Sep-19 12:30N 25°45' W 080°10'0 0.1
2017-Sep-19 12:00N 25°45' W 080°10'2 3.2
2017-Sep-19 11:30N 25°46' W 080°11'1 1.5
2017-Sep-19 11:00N 25°47' W 080°12'  
2017-Sep-16 22:10N 25°47' W 080°12'0 0.0
2017-Sep-16 22:00N 25°47' W 080°12'1 1.6
2017-Sep-16 21:30N 25°46' W 080°11'1 1.8
2017-Sep-16 21:00N 25°47' W 080°11'0 0.2
2017-Sep-16 20:30N 25°47' W 080°11'0 0.0
2017-Sep-16 20:00N 25°47' W 080°11'0 0.0
2017-Sep-16 19:31N 25°47' W 080°11'0 0.0
2017-Sep-16 19:00N 25°47' W 080°11'1 2.0
2017-Sep-16 18:30N 25°47' W 080°12'0 0.1
2017-Sep-16 18:00N 25°47' W 080°12'  

Dump ship's entire track history